sensor_id;sensor_type;location;lat;lon;timestamp;P1;durP1;ratioP1;P2;durP2;ratioP2
12476;SDS011;6303;51.504;6.300;2022-09-20T00:00:34;1.52;;;1.20;;
12476;SDS011;6303;51.504;6.300;2022-09-20T00:03:03;1.65;;;1.20;;
12476;SDS011;6303;51.504;6.300;2022-09-20T00:05:31;1.95;;;0.98;;
12476;SDS011;6303;51.504;6.300;2022-09-20T00:07:59;1.25;;;1.10;;
12476;SDS011;6303;51.504;6.300;2022-09-20T00:10:27;1.40;;;1.27;;
12476;SDS011;6303;51.504;6.300;2022-09-20T00:12:55;2.60;;;1.20;;
12476;SDS011;6303;51.504;6.300;2022-09-20T00:15:22;2.50;;;1.13;;
12476;SDS011;6303;51.504;6.300;2022-09-20T00:17:49;1.95;;;1.20;;
12476;SDS011;6303;51.504;6.300;2022-09-20T00:20:17;1.25;;;1.15;;
12476;SDS011;6303;51.504;6.300;2022-09-20T00:22:45;2.10;;;1.17;;
12476;SDS011;6303;51.504;6.300;2022-09-20T00:25:14;2.45;;;1.13;;
12476;SDS011;6303;51.504;6.300;2022-09-20T00:27:41;1.20;;;1.00;;
12476;SDS011;6303;51.504;6.300;2022-09-20T00:30:09;1.90;;;1.10;;
12476;SDS011;6303;51.504;6.300;2022-09-20T00:32:37;1.40;;;1.10;;
12476;SDS011;6303;51.504;6.300;2022-09-20T00:35:05;2.75;;;1.13;;
12476;SDS011;6303;51.504;6.300;2022-09-20T00:37:33;2.00;;;1.10;;
12476;SDS011;6303;51.504;6.300;2022-09-20T00:40:01;1.23;;;1.10;;
12476;SDS011;6303;51.504;6.300;2022-09-20T00:42:29;1.35;;;1.25;;
12476;SDS011;6303;51.504;6.300;2022-09-20T00:44:57;1.38;;;0.98;;
12476;SDS011;6303;51.504;6.300;2022-09-20T00:47:28;1.48;;;1.10;;
12476;SDS011;6303;51.504;6.300;2022-09-20T00:50:04;1.52;;;1.00;;
12476;SDS011;6303;51.504;6.300;2022-09-20T00:52:44;2.90;;;1.58;;
12476;SDS011;6303;51.504;6.300;2022-09-20T00:55:13;0.90;;;0.90;;
12476;SDS011;6303;51.504;6.300;2022-09-20T00:57:42;1.10;;;1.00;;
12476;SDS011;6303;51.504;6.300;2022-09-20T01:00:11;1.65;;;1.10;;
12476;SDS011;6303;51.504;6.300;2022-09-20T01:02:39;1.50;;;0.90;;
12476;SDS011;6303;51.504;6.300;2022-09-20T01:05:11;1.10;;;1.00;;
12476;SDS011;6303;51.504;6.300;2022-09-20T01:07:40;2.08;;;1.10;;
12476;SDS011;6303;51.504;6.300;2022-09-20T01:10:10;1.65;;;1.02;;
12476;SDS011;6303;51.504;6.300;2022-09-20T01:12:37;1.65;;;1.00;;
12476;SDS011;6303;51.504;6.300;2022-09-20T01:15:06;1.65;;;1.05;;
12476;SDS011;6303;51.504;6.300;2022-09-20T01:17:35;1.88;;;0.98;;
12476;SDS011;6303;51.504;6.300;2022-09-20T01:20:10;1.55;;;0.90;;
12476;SDS011;6303;51.504;6.300;2022-09-20T01:22:50;1.17;;;0.90;;
12476;SDS011;6303;51.504;6.300;2022-09-20T01:25:40;1.75;;;0.95;;
12476;SDS011;6303;51.504;6.300;2022-09-20T01:28:27;1.85;;;1.00;;
12476;SDS011;6303;51.504;6.300;2022-09-20T01:30:56;2.50;;;1.27;;
12476;SDS011;6303;51.504;6.300;2022-09-20T01:33:28;2.00;;;0.90;;
12476;SDS011;6303;51.504;6.300;2022-09-20T01:36:04;0.93;;;0.93;;
12476;SDS011;6303;51.504;6.300;2022-09-20T01:38:35;1.27;;;1.00;;
12476;SDS011;6303;51.504;6.300;2022-09-20T01:41:08;1.40;;;0.90;;
12476;SDS011;6303;51.504;6.300;2022-09-20T01:43:41;1.25;;;1.00;;
12476;SDS011;6303;51.504;6.300;2022-09-20T01:46:20;0.93;;;0.88;;
12476;SDS011;6303;51.504;6.300;2022-09-20T01:48:58;1.00;;;0.93;;
12476;SDS011;6303;51.504;6.300;2022-09-20T01:51:49;1.42;;;1.00;;
12476;SDS011;6303;51.504;6.300;2022-09-20T02:00:48;1.95;;;1.33;;
12476;SDS011;6303;51.504;6.300;2022-09-20T02:03:38;1.33;;;0.90;;
12476;SDS011;6303;51.504;6.300;2022-09-20T02:06:25;1.17;;;1.00;;
12476;SDS011;6303;51.504;6.300;2022-09-20T02:09:13;1.65;;;1.00;;
12476;SDS011;6303;51.504;6.300;2022-09-20T02:11:58;1.10;;;1.00;;
12476;SDS011;6303;51.504;6.300;2022-09-20T02:14:47;1.17;;;1.10;;
12476;SDS011;6303;51.504;6.300;2022-09-20T02:17:23;1.05;;;0.90;;
12476;SDS011;6303;51.504;6.300;2022-09-20T02:20:12;1.30;;;1.00;;
12476;SDS011;6303;51.504;6.300;2022-09-20T02:22:50;0.80;;;0.80;;
12476;SDS011;6303;51.504;6.300;2022-09-20T02:25:44;1.83;;;1.00;;
12476;SDS011;6303;51.504;6.300;2022-09-20T02:28:34;1.35;;;0.98;;
12476;SDS011;6303;51.504;6.300;2022-09-20T02:31:15;1.42;;;1.10;;
12476;SDS011;6303;51.504;6.300;2022-09-20T02:33:59;0.95;;;0.95;;
12476;SDS011;6303;51.504;6.300;2022-09-20T02:36:46;1.30;;;1.20;;
12476;SDS011;6303;51.504;6.300;2022-09-20T02:39:28;1.20;;;1.13;;
12476;SDS011;6303;51.504;6.300;2022-09-20T02:42:02;2.38;;;1.33;;
12476;SDS011;6303;51.504;6.300;2022-09-20T02:44:42;0.95;;;0.90;;
12476;SDS011;6303;51.504;6.300;2022-09-20T02:47:20;0.80;;;0.80;;
12476;SDS011;6303;51.504;6.300;2022-09-20T02:49:57;1.55;;;1.00;;
12476;SDS011;6303;51.504;6.300;2022-09-20T02:52:43;0.85;;;0.85;;
12476;SDS011;6303;51.504;6.300;2022-09-20T02:55:20;1.33;;;0.90;;
12476;SDS011;6303;51.504;6.300;2022-09-20T02:58:03;1.17;;;1.00;;
12476;SDS011;6303;51.504;6.300;2022-09-20T03:00:44;1.52;;;1.20;;
12476;SDS011;6303;51.504;6.300;2022-09-20T03:03:20;1.27;;;0.95;;
12476;SDS011;6303;51.504;6.300;2022-09-20T03:06:03;1.30;;;1.10;;
12476;SDS011;6303;51.504;6.300;2022-09-20T03:08:37;1.15;;;0.90;;
12476;SDS011;6303;51.504;6.300;2022-09-20T03:11:15;1.40;;;1.00;;
12476;SDS011;6303;51.504;6.300;2022-09-20T03:13:55;1.92;;;1.25;;
12476;SDS011;6303;51.504;6.300;2022-09-20T03:16:37;2.42;;;1.10;;
12476;SDS011;6303;51.504;6.300;2022-09-20T03:19:19;1.00;;;1.00;;
12476;SDS011;6303;51.504;6.300;2022-09-20T03:22:00;1.13;;;0.95;;
12476;SDS011;6303;51.504;6.300;2022-09-20T03:24:41;1.15;;;0.95;;
12476;SDS011;6303;51.504;6.300;2022-09-20T03:27:23;1.17;;;1.00;;
12476;SDS011;6303;51.504;6.300;2022-09-20T03:30:00;0.80;;;0.80;;
12476;SDS011;6303;51.504;6.300;2022-09-20T03:32:47;1.48;;;0.88;;
12476;SDS011;6303;51.504;6.300;2022-09-20T03:35:29;1.58;;;0.98;;
12476;SDS011;6303;51.504;6.300;2022-09-20T03:38:24;1.70;;;0.93;;
12476;SDS011;6303;51.504;6.300;2022-09-20T03:41:13;0.90;;;0.80;;
12476;SDS011;6303;51.504;6.300;2022-09-20T03:44:04;1.30;;;1.00;;
12476;SDS011;6303;51.504;6.300;2022-09-20T03:46:47;1.92;;;1.17;;
12476;SDS011;6303;51.504;6.300;2022-09-20T03:49:37;1.80;;;1.00;;
12476;SDS011;6303;51.504;6.300;2022-09-20T03:52:32;1.40;;;0.85;;
12476;SDS011;6303;51.504;6.300;2022-09-20T03:55:39;1.35;;;0.98;;
12476;SDS011;6303;51.504;6.300;2022-09-20T03:58:33;1.17;;;0.90;;
12476;SDS011;6303;51.504;6.300;2022-09-20T04:01:15;0.70;;;0.70;;
12476;SDS011;6303;51.504;6.300;2022-09-20T04:03:56;2.03;;;0.80;;
12476;SDS011;6303;51.504;6.300;2022-09-20T04:06:37;0.75;;;0.70;;
12476;SDS011;6303;51.504;6.300;2022-09-20T04:09:25;0.90;;;0.90;;
12476;SDS011;6303;51.504;6.300;2022-09-20T04:12:11;1.02;;;0.90;;
12476;SDS011;6303;51.504;6.300;2022-09-20T04:14:46;0.95;;;0.90;;
12476;SDS011;6303;51.504;6.300;2022-09-20T04:17:23;1.02;;;0.95;;
12476;SDS011;6303;51.504;6.300;2022-09-20T04:19:57;2.00;;;1.10;;
12476;SDS011;6303;51.504;6.300;2022-09-20T04:22:29;1.27;;;0.90;;
12476;SDS011;6303;51.504;6.300;2022-09-20T04:24:59;1.02;;;0.95;;
12476;SDS011;6303;51.504;6.300;2022-09-20T04:27:32;1.40;;;1.00;;
12476;SDS011;6303;51.504;6.300;2022-09-20T04:30:09;3.33;;;1.10;;
12476;SDS011;6303;51.504;6.300;2022-09-20T04:32:45;0.90;;;0.73;;
12476;SDS011;6303;51.504;6.300;2022-09-20T04:35:24;0.90;;;0.80;;
12476;SDS011;6303;51.504;6.300;2022-09-20T04:38:16;1.17;;;1.08;;
12476;SDS011;6303;51.504;6.300;2022-09-20T04:40:52;1.33;;;0.90;;
12476;SDS011;6303;51.504;6.300;2022-09-20T04:43:50;1.45;;;1.10;;
12476;SDS011;6303;51.504;6.300;2022-09-20T04:46:47;2.35;;;1.00;;
12476;SDS011;6303;51.504;6.300;2022-09-20T04:50:03;1.00;;;0.95;;
12476;SDS011;6303;51.504;6.300;2022-09-20T04:53:12;1.25;;;1.00;;
12476;SDS011;6303;51.504;6.300;2022-09-20T04:55:55;1.15;;;0.90;;
12476;SDS011;6303;51.504;6.300;2022-09-20T05:10:59;7.30;;;1.60;;
12476;SDS011;6303;51.504;6.300;2022-09-20T05:14:00;5.68;;;1.80;;
12476;SDS011;6303;51.504;6.300;2022-09-20T05:16:45;13.40;;;2.97;;
12476;SDS011;6303;51.504;6.300;2022-09-20T05:19:25;17.25;;;3.72;;
12476;SDS011;6303;51.504;6.300;2022-09-20T05:22:04;44.78;;;9.65;;
12476;SDS011;6303;51.504;6.300;2022-09-20T05:27:49;22.25;;;6.50;;
12476;SDS011;6303;51.504;6.300;2022-09-20T05:30:25;19.20;;;5.38;;
12476;SDS011;6303;51.504;6.300;2022-09-20T05:33:02;18.98;;;4.97;;
12476;SDS011;6303;51.504;6.300;2022-09-20T05:35:39;12.02;;;4.63;;
12476;SDS011;6303;51.504;6.300;2022-09-20T05:38:12;10.90;;;4.05;;
12476;SDS011;6303;51.504;6.300;2022-09-20T05:40:52;10.93;;;3.50;;
12476;SDS011;6303;51.504;6.300;2022-09-20T05:43:31;11.20;;;3.55;;
12476;SDS011;6303;51.504;6.300;2022-09-20T05:46:09;9.00;;;3.25;;
12476;SDS011;6303;51.504;6.300;2022-09-20T05:48:51;7.97;;;3.00;;
12476;SDS011;6303;51.504;6.300;2022-09-20T05:51:26;12.15;;;3.28;;
12476;SDS011;6303;51.504;6.300;2022-09-20T05:56:54;10.23;;;3.38;;
12476;SDS011;6303;51.504;6.300;2022-09-20T05:59:43;7.15;;;2.90;;
12476;SDS011;6303;51.504;6.300;2022-09-20T06:02:27;8.43;;;2.85;;
12476;SDS011;6303;51.504;6.300;2022-09-20T06:05:02;9.80;;;2.90;;
12476;SDS011;6303;51.504;6.300;2022-09-20T06:07:44;7.00;;;2.72;;
12476;SDS011;6303;51.504;6.300;2022-09-20T06:10:28;5.35;;;2.58;;
12476;SDS011;6303;51.504;6.300;2022-09-20T06:13:07;5.25;;;2.53;;
12476;SDS011;6303;51.504;6.300;2022-09-20T06:15:51;5.72;;;2.53;;
12476;SDS011;6303;51.504;6.300;2022-09-20T06:18:26;5.20;;;2.60;;
12476;SDS011;6303;51.504;6.300;2022-09-20T06:21:00;7.03;;;2.45;;
12476;SDS011;6303;51.504;6.300;2022-09-20T06:23:38;5.05;;;2.92;;
12476;SDS011;6303;51.504;6.300;2022-09-20T06:26:06;7.85;;;2.47;;
12476;SDS011;6303;51.504;6.300;2022-09-20T06:28:41;4.05;;;2.38;;
12476;SDS011;6303;51.504;6.300;2022-09-20T06:31:12;4.32;;;2.35;;
12476;SDS011;6303;51.504;6.300;2022-09-20T06:33:41;5.70;;;2.58;;
12476;SDS011;6303;51.504;6.300;2022-09-20T06:36:15;5.07;;;2.05;;
12476;SDS011;6303;51.504;6.300;2022-09-20T06:39:07;3.03;;;1.83;;
12476;SDS011;6303;51.504;6.300;2022-09-20T06:41:59;6.50;;;2.17;;
12476;SDS011;6303;51.504;6.300;2022-09-20T06:44:27;3.55;;;1.98;;
12476;SDS011;6303;51.504;6.300;2022-09-20T06:46:55;4.35;;;2.00;;
12476;SDS011;6303;51.504;6.300;2022-09-20T06:49:23;3.85;;;1.88;;
12476;SDS011;6303;51.504;6.300;2022-09-20T06:51:53;3.80;;;1.90;;
12476;SDS011;6303;51.504;6.300;2022-09-20T06:54:21;5.63;;;2.10;;
12476;SDS011;6303;51.504;6.300;2022-09-20T06:56:51;2.63;;;1.60;;
12476;SDS011;6303;51.504;6.300;2022-09-20T06:59:18;3.00;;;1.92;;
12476;SDS011;6303;51.504;6.300;2022-09-20T07:01:46;4.30;;;1.90;;
12476;SDS011;6303;51.504;6.300;2022-09-20T07:04:12;3.13;;;1.80;;
12476;SDS011;6303;51.504;6.300;2022-09-20T07:06:41;3.65;;;2.10;;
12476;SDS011;6303;51.504;6.300;2022-09-20T07:09:08;4.78;;;2.00;;
12476;SDS011;6303;51.504;6.300;2022-09-20T07:11:36;3.00;;;1.70;;
12476;SDS011;6303;51.504;6.300;2022-09-20T07:14:03;3.30;;;2.15;;
12476;SDS011;6303;51.504;6.300;2022-09-20T07:16:32;3.58;;;1.95;;
12476;SDS011;6303;51.504;6.300;2022-09-20T07:18:59;4.32;;;1.70;;
12476;SDS011;6303;51.504;6.300;2022-09-20T07:21:26;4.28;;;1.73;;
12476;SDS011;6303;51.504;6.300;2022-09-20T07:23:54;2.28;;;2.08;;
12476;SDS011;6303;51.504;6.300;2022-09-20T07:26:23;3.42;;;2.00;;
12476;SDS011;6303;51.504;6.300;2022-09-20T07:28:52;3.92;;;1.90;;
12476;SDS011;6303;51.504;6.300;2022-09-20T07:31:20;4.65;;;2.08;;
12476;SDS011;6303;51.504;6.300;2022-09-20T07:33:49;4.13;;;2.45;;
12476;SDS011;6303;51.504;6.300;2022-09-20T07:36:16;4.22;;;2.08;;
12476;SDS011;6303;51.504;6.300;2022-09-20T07:38:45;3.40;;;2.30;;
12476;SDS011;6303;51.504;6.300;2022-09-20T07:41:14;3.92;;;2.30;;
12476;SDS011;6303;51.504;6.300;2022-09-20T07:43:43;4.88;;;2.47;;
12476;SDS011;6303;51.504;6.300;2022-09-20T07:46:11;4.63;;;2.55;;
12476;SDS011;6303;51.504;6.300;2022-09-20T07:48:38;3.95;;;2.30;;
12476;SDS011;6303;51.504;6.300;2022-09-20T07:51:07;7.32;;;2.50;;
12476;SDS011;6303;51.504;6.300;2022-09-20T07:53:35;6.20;;;2.25;;
12476;SDS011;6303;51.504;6.300;2022-09-20T07:56:04;5.80;;;2.75;;
12476;SDS011;6303;51.504;6.300;2022-09-20T07:58:33;5.68;;;2.40;;
12476;SDS011;6303;51.504;6.300;2022-09-20T08:01:02;3.63;;;2.28;;
12476;SDS011;6303;51.504;6.300;2022-09-20T08:03:30;3.88;;;2.47;;
12476;SDS011;6303;51.504;6.300;2022-09-20T08:05:58;4.30;;;2.42;;
12476;SDS011;6303;51.504;6.300;2022-09-20T08:08:26;4.68;;;2.30;;
12476;SDS011;6303;51.504;6.300;2022-09-20T08:11:00;3.88;;;2.20;;
12476;SDS011;6303;51.504;6.300;2022-09-20T08:13:29;5.75;;;2.50;;
12476;SDS011;6303;51.504;6.300;2022-09-20T08:16:01;4.82;;;2.53;;
12476;SDS011;6303;51.504;6.300;2022-09-20T08:18:28;2.25;;;1.83;;
12476;SDS011;6303;51.504;6.300;2022-09-20T08:20:56;5.05;;;2.17;;
12476;SDS011;6303;51.504;6.300;2022-09-20T08:23:32;4.50;;;2.17;;
12476;SDS011;6303;51.504;6.300;2022-09-20T08:25:59;3.67;;;2.00;;
12476;SDS011;6303;51.504;6.300;2022-09-20T08:28:27;4.75;;;2.00;;
12476;SDS011;6303;51.504;6.300;2022-09-20T08:31:00;3.50;;;2.00;;
12476;SDS011;6303;51.504;6.300;2022-09-20T08:33:28;3.03;;;1.80;;
12476;SDS011;6303;51.504;6.300;2022-09-20T08:35:55;3.28;;;1.92;;
12476;SDS011;6303;51.504;6.300;2022-09-20T08:38:22;10.95;;;2.88;;
12476;SDS011;6303;51.504;6.300;2022-09-20T08:40:52;7.82;;;2.58;;
12476;SDS011;6303;51.504;6.300;2022-09-20T08:43:23;7.05;;;2.90;;
12476;SDS011;6303;51.504;6.300;2022-09-20T08:45:53;10.05;;;3.03;;
12476;SDS011;6303;51.504;6.300;2022-09-20T08:48:22;5.60;;;2.35;;
12476;SDS011;6303;51.504;6.300;2022-09-20T08:50:56;6.35;;;2.50;;
12476;SDS011;6303;51.504;6.300;2022-09-20T08:53:23;4.55;;;2.10;;
12476;SDS011;6303;51.504;6.300;2022-09-20T08:55:53;4.70;;;1.88;;
12476;SDS011;6303;51.504;6.300;2022-09-20T08:58:22;5.35;;;2.00;;
12476;SDS011;6303;51.504;6.300;2022-09-20T09:00:50;4.80;;;2.17;;
12476;SDS011;6303;51.504;6.300;2022-09-20T09:03:19;4.15;;;2.42;;
12476;SDS011;6303;51.504;6.300;2022-09-20T09:05:48;3.83;;;1.75;;
12476;SDS011;6303;51.504;6.300;2022-09-20T09:08:17;3.42;;;1.40;;
12476;SDS011;6303;51.504;6.300;2022-09-20T09:10:47;4.72;;;1.42;;
12476;SDS011;6303;51.504;6.300;2022-09-20T09:13:23;2.35;;;1.40;;
12476;SDS011;6303;51.504;6.300;2022-09-20T09:15:54;1.88;;;1.15;;
12476;SDS011;6303;51.504;6.300;2022-09-20T09:18:29;3.88;;;1.20;;
12476;SDS011;6303;51.504;6.300;2022-09-20T09:21:00;3.05;;;1.40;;
12476;SDS011;6303;51.504;6.300;2022-09-20T09:23:30;3.25;;;1.23;;
12476;SDS011;6303;51.504;6.300;2022-09-20T09:26:11;2.17;;;1.20;;
12476;SDS011;6303;51.504;6.300;2022-09-20T09:28:41;1.23;;;1.00;;
12476;SDS011;6303;51.504;6.300;2022-09-20T09:31:11;3.65;;;1.30;;
12476;SDS011;6303;51.504;6.300;2022-09-20T09:33:47;1.17;;;1.00;;
12476;SDS011;6303;51.504;6.300;2022-09-20T09:36:16;1.88;;;1.08;;
12476;SDS011;6303;51.504;6.300;2022-09-20T09:38:47;1.90;;;0.95;;
12476;SDS011;6303;51.504;6.300;2022-09-20T09:41:19;2.50;;;1.27;;
12476;SDS011;6303;51.504;6.300;2022-09-20T09:43:59;2.28;;;1.20;;
12476;SDS011;6303;51.504;6.300;2022-09-20T09:46:29;2.83;;;1.30;;
12476;SDS011;6303;51.504;6.300;2022-09-20T09:49:06;1.88;;;1.10;;
12476;SDS011;6303;51.504;6.300;2022-09-20T09:51:37;2.38;;;1.30;;
12476;SDS011;6303;51.504;6.300;2022-09-20T09:54:08;2.97;;;1.27;;
12476;SDS011;6303;51.504;6.300;2022-09-20T09:56:44;3.28;;;1.60;;
12476;SDS011;6303;51.504;6.300;2022-09-20T09:59:38;4.15;;;1.60;;
12476;SDS011;6303;51.504;6.300;2022-09-20T10:02:19;2.55;;;1.50;;
12476;SDS011;6303;51.504;6.300;2022-09-20T10:04:59;5.13;;;1.90;;
12476;SDS011;6303;51.504;6.300;2022-09-20T10:07:32;5.60;;;1.80;;
12476;SDS011;6303;51.504;6.300;2022-09-20T10:10:07;6.32;;;1.60;;
12476;SDS011;6303;51.504;6.300;2022-09-20T10:12:46;4.15;;;1.90;;
12476;SDS011;6303;51.504;6.300;2022-09-20T10:15:27;4.60;;;1.80;;
12476;SDS011;6303;51.504;6.300;2022-09-20T10:18:03;3.72;;;1.40;;
12476;SDS011;6303;51.504;6.300;2022-09-20T10:20:47;3.15;;;1.60;;
12476;SDS011;6303;51.504;6.300;2022-09-20T10:23:29;4.30;;;1.70;;
12476;SDS011;6303;51.504;6.300;2022-09-20T10:26:17;3.55;;;1.70;;
12476;SDS011;6303;51.504;6.300;2022-09-20T10:28:53;3.30;;;1.67;;
12476;SDS011;6303;51.504;6.300;2022-09-20T10:31:33;2.38;;;1.33;;
12476;SDS011;6303;51.504;6.300;2022-09-20T10:34:15;2.75;;;1.50;;
12476;SDS011;6303;51.504;6.300;2022-09-20T10:36:55;4.72;;;1.50;;
12476;SDS011;6303;51.504;6.300;2022-09-20T10:39:26;3.13;;;1.45;;
12476;SDS011;6303;51.504;6.300;2022-09-20T10:41:59;2.03;;;1.30;;
12476;SDS011;6303;51.504;6.300;2022-09-20T10:44:59;4.03;;;1.63;;
12476;SDS011;6303;51.504;6.300;2022-09-20T10:47:33;3.08;;;1.40;;
12476;SDS011;6303;51.504;6.300;2022-09-20T10:50:06;5.75;;;1.52;;
12476;SDS011;6303;51.504;6.300;2022-09-20T10:52:47;2.63;;;1.50;;
12476;SDS011;6303;51.504;6.300;2022-09-20T10:55:28;1.95;;;1.23;;
12476;SDS011;6303;51.504;6.300;2022-09-20T11:01:20;3.45;;;1.48;;
12476;SDS011;6303;51.504;6.300;2022-09-20T11:03:56;2.17;;;1.27;;
12476;SDS011;6303;51.504;6.300;2022-09-20T11:06:39;2.60;;;1.40;;
12476;SDS011;6303;51.504;6.300;2022-09-20T11:09:15;3.85;;;1.50;;
12476;SDS011;6303;51.504;6.300;2022-09-20T11:11:46;2.40;;;1.23;;
12476;SDS011;6303;51.504;6.300;2022-09-20T11:14:18;2.03;;;1.02;;
12476;SDS011;6303;51.504;6.300;2022-09-20T11:16:49;1.85;;;1.20;;
12476;SDS011;6303;51.504;6.300;2022-09-20T11:19:21;2.13;;;1.23;;
12476;SDS011;6303;51.504;6.300;2022-09-20T11:21:56;3.22;;;1.30;;
12476;SDS011;6303;51.504;6.300;2022-09-20T11:24:32;3.20;;;1.10;;
12476;SDS011;6303;51.504;6.300;2022-09-20T11:27:04;2.38;;;0.98;;
12476;SDS011;6303;51.504;6.300;2022-09-20T11:29:39;3.42;;;1.20;;
12476;SDS011;6303;51.504;6.300;2022-09-20T11:32:12;3.83;;;1.00;;
12476;SDS011;6303;51.504;6.300;2022-09-20T11:34:46;2.58;;;1.00;;
12476;SDS011;6303;51.504;6.300;2022-09-20T11:37:16;3.95;;;1.30;;
12476;SDS011;6303;51.504;6.300;2022-09-20T11:39:46;4.25;;;1.33;;
12476;SDS011;6303;51.504;6.300;2022-09-20T11:42:20;4.00;;;1.20;;
12476;SDS011;6303;51.504;6.300;2022-09-20T11:44:50;2.80;;;1.00;;
12476;SDS011;6303;51.504;6.300;2022-09-20T11:47:19;1.88;;;1.00;;
12476;SDS011;6303;51.504;6.300;2022-09-20T11:49:56;3.30;;;1.20;;
12476;SDS011;6303;51.504;6.300;2022-09-20T11:52:43;4.32;;;1.40;;
12476;SDS011;6303;51.504;6.300;2022-09-20T11:55:37;3.35;;;1.20;;
12476;SDS011;6303;51.504;6.300;2022-09-20T11:58:10;3.42;;;1.20;;
12476;SDS011;6303;51.504;6.300;2022-09-20T12:00:42;3.42;;;1.30;;
12476;SDS011;6303;51.504;6.300;2022-09-20T12:03:20;3.45;;;1.30;;
12476;SDS011;6303;51.504;6.300;2022-09-20T12:05:55;3.03;;;1.05;;
12476;SDS011;6303;51.504;6.300;2022-09-20T12:08:24;1.83;;;1.00;;
12476;SDS011;6303;51.504;6.300;2022-09-20T12:10:56;2.50;;;1.05;;
12476;SDS011;6303;51.504;6.300;2022-09-20T12:13:27;4.35;;;1.60;;
12476;SDS011;6303;51.504;6.300;2022-09-20T12:15:58;1.30;;;1.00;;
12476;SDS011;6303;51.504;6.300;2022-09-20T12:18:29;3.92;;;1.25;;
12476;SDS011;6303;51.504;6.300;2022-09-20T12:21:05;1.95;;;1.05;;
12476;SDS011;6303;51.504;6.300;2022-09-20T12:26:45;2.45;;;1.05;;
12476;SDS011;6303;51.504;6.300;2022-09-20T12:32:39;4.07;;;1.23;;
12476;SDS011;6303;51.504;6.300;2022-09-20T12:38:33;2.15;;;1.30;;
12476;SDS011;6303;51.504;6.300;2022-09-20T12:41:07;1.70;;;1.40;;
12476;SDS011;6303;51.504;6.300;2022-09-20T12:43:38;2.97;;;1.17;;
12476;SDS011;6303;51.504;6.300;2022-09-20T12:46:25;2.10;;;1.15;;
12476;SDS011;6303;51.504;6.300;2022-09-20T12:49:10;2.40;;;1.02;;
12476;SDS011;6303;51.504;6.300;2022-09-20T12:52:18;1.63;;;0.88;;
12476;SDS011;6303;51.504;6.300;2022-09-20T12:58:21;1.45;;;0.85;;
12476;SDS011;6303;51.504;6.300;2022-09-20T13:09:59;1.55;;;1.00;;
12476;SDS011;6303;51.504;6.300;2022-09-20T13:12:30;2.92;;;1.23;;
12476;SDS011;6303;51.504;6.300;2022-09-20T13:15:02;1.42;;;0.95;;
12476;SDS011;6303;51.504;6.300;2022-09-20T13:17:31;1.30;;;0.90;;
12476;SDS011;6303;51.504;6.300;2022-09-20T13:19:59;1.77;;;1.00;;
12476;SDS011;6303;51.504;6.300;2022-09-20T13:22:28;2.20;;;1.02;;
12476;SDS011;6303;51.504;6.300;2022-09-20T13:25:03;2.00;;;0.98;;
12476;SDS011;6303;51.504;6.300;2022-09-20T13:27:33;2.83;;;1.00;;
12476;SDS011;6303;51.504;6.300;2022-09-20T13:30:13;1.02;;;0.80;;
12476;SDS011;6303;51.504;6.300;2022-09-20T13:32:45;2.78;;;0.95;;
12476;SDS011;6303;51.504;6.300;2022-09-20T13:35:13;2.45;;;1.00;;
12476;SDS011;6303;51.504;6.300;2022-09-20T13:37:46;3.65;;;0.90;;
12476;SDS011;6303;51.504;6.300;2022-09-20T13:40:20;1.90;;;1.10;;
12476;SDS011;6303;51.504;6.300;2022-09-20T13:42:51;1.83;;;0.90;;
12476;SDS011;6303;51.504;6.300;2022-09-20T13:45:19;1.52;;;1.00;;
12476;SDS011;6303;51.504;6.300;2022-09-20T13:47:48;1.05;;;0.90;;
12476;SDS011;6303;51.504;6.300;2022-09-20T13:50:19;1.52;;;0.90;;
12476;SDS011;6303;51.504;6.300;2022-09-20T13:52:48;2.22;;;0.93;;
12476;SDS011;6303;51.504;6.300;2022-09-20T13:58:05;3.75;;;1.10;;
12476;SDS011;6303;51.504;6.300;2022-09-20T14:00:34;2.08;;;0.93;;
12476;SDS011;6303;51.504;6.300;2022-09-20T14:03:02;3.13;;;1.05;;
12476;SDS011;6303;51.504;6.300;2022-09-20T14:05:30;3.55;;;1.25;;
12476;SDS011;6303;51.504;6.300;2022-09-20T14:07:58;1.10;;;1.00;;
12476;SDS011;6303;51.504;6.300;2022-09-20T14:10:28;1.13;;;0.85;;
12476;SDS011;6303;51.504;6.300;2022-09-20T14:12:58;1.77;;;1.00;;
12476;SDS011;6303;51.504;6.300;2022-09-20T14:15:27;2.80;;;1.20;;
12476;SDS011;6303;51.504;6.300;2022-09-20T14:18:00;1.58;;;1.00;;
12476;SDS011;6303;51.504;6.300;2022-09-20T14:20:28;2.55;;;1.05;;
12476;SDS011;6303;51.504;6.300;2022-09-20T14:22:56;1.50;;;0.95;;
12476;SDS011;6303;51.504;6.300;2022-09-20T14:25:23;3.25;;;0.88;;
12476;SDS011;6303;51.504;6.300;2022-09-20T14:28:12;1.05;;;0.90;;
12476;SDS011;6303;51.504;6.300;2022-09-20T14:30:43;2.35;;;0.90;;
12476;SDS011;6303;51.504;6.300;2022-09-20T14:33:13;2.70;;;1.30;;
12476;SDS011;6303;51.504;6.300;2022-09-20T14:35:45;1.42;;;0.90;;
12476;SDS011;6303;51.504;6.300;2022-09-20T14:38:14;3.38;;;1.10;;
12476;SDS011;6303;51.504;6.300;2022-09-20T14:40:44;2.25;;;1.20;;
12476;SDS011;6303;51.504;6.300;2022-09-20T14:43:19;1.55;;;0.90;;
12476;SDS011;6303;51.504;6.300;2022-09-20T14:45:50;2.70;;;1.23;;
12476;SDS011;6303;51.504;6.300;2022-09-20T14:48:30;1.65;;;0.88;;
12476;SDS011;6303;51.504;6.300;2022-09-20T14:51:10;2.08;;;0.88;;
12476;SDS011;6303;51.504;6.300;2022-09-20T14:53:48;1.15;;;1.00;;
12476;SDS011;6303;51.504;6.300;2022-09-20T14:56:24;2.15;;;0.90;;
12476;SDS011;6303;51.504;6.300;2022-09-20T14:59:06;1.13;;;0.80;;
12476;SDS011;6303;51.504;6.300;2022-09-20T15:01:53;1.73;;;1.00;;
12476;SDS011;6303;51.504;6.300;2022-09-20T15:04:23;1.63;;;0.93;;
12476;SDS011;6303;51.504;6.300;2022-09-20T15:06:52;1.75;;;1.00;;
12476;SDS011;6303;51.504;6.300;2022-09-20T15:09:20;1.83;;;0.90;;
12476;SDS011;6303;51.504;6.300;2022-09-20T15:11:57;1.83;;;1.10;;
12476;SDS011;6303;51.504;6.300;2022-09-20T15:14:29;1.52;;;1.08;;
12476;SDS011;6303;51.504;6.300;2022-09-20T15:16:56;1.88;;;1.10;;
12476;SDS011;6303;51.504;6.300;2022-09-20T15:19:25;1.35;;;1.00;;
12476;SDS011;6303;51.504;6.300;2022-09-20T15:21:52;2.80;;;0.98;;
12476;SDS011;6303;51.504;6.300;2022-09-20T15:24:19;2.30;;;1.10;;
12476;SDS011;6303;51.504;6.300;2022-09-20T15:26:46;2.42;;;1.00;;
12476;SDS011;6303;51.504;6.300;2022-09-20T15:29:13;1.25;;;0.90;;
12476;SDS011;6303;51.504;6.300;2022-09-20T15:31:43;1.45;;;1.00;;
12476;SDS011;6303;51.504;6.300;2022-09-20T15:34:12;2.78;;;0.90;;
12476;SDS011;6303;51.504;6.300;2022-09-20T15:36:40;1.85;;;1.08;;
12476;SDS011;6303;51.504;6.300;2022-09-20T15:39:08;1.05;;;0.88;;
12476;SDS011;6303;51.504;6.300;2022-09-20T15:41:35;2.63;;;1.08;;
12476;SDS011;6303;51.504;6.300;2022-09-20T15:44:02;1.02;;;0.90;;
12476;SDS011;6303;51.504;6.300;2022-09-20T15:46:30;1.55;;;1.10;;
12476;SDS011;6303;51.504;6.300;2022-09-20T15:48:59;1.48;;;0.90;;
12476;SDS011;6303;51.504;6.300;2022-09-20T15:51:27;1.55;;;0.90;;
12476;SDS011;6303;51.504;6.300;2022-09-20T15:53:56;1.20;;;0.90;;
12476;SDS011;6303;51.504;6.300;2022-09-20T15:56:24;2.13;;;1.13;;
12476;SDS011;6303;51.504;6.300;2022-09-20T15:58:55;1.95;;;0.90;;
12476;SDS011;6303;51.504;6.300;2022-09-20T16:01:24;1.20;;;0.80;;
12476;SDS011;6303;51.504;6.300;2022-09-20T16:03:53;1.42;;;0.90;;
12476;SDS011;6303;51.504;6.300;2022-09-20T16:06:22;1.20;;;0.98;;
12476;SDS011;6303;51.504;6.300;2022-09-20T16:08:51;2.05;;;1.00;;
12476;SDS011;6303;51.504;6.300;2022-09-20T16:11:19;2.38;;;1.20;;
12476;SDS011;6303;51.504;6.300;2022-09-20T16:13:51;2.28;;;0.90;;
12476;SDS011;6303;51.504;6.300;2022-09-20T16:16:19;2.70;;;1.13;;
12476;SDS011;6303;51.504;6.300;2022-09-20T16:18:46;2.22;;;1.00;;
12476;SDS011;6303;51.504;6.300;2022-09-20T16:21:31;1.15;;;0.90;;
12476;SDS011;6303;51.504;6.300;2022-09-20T16:23:59;1.10;;;0.90;;
12476;SDS011;6303;51.504;6.300;2022-09-20T16:26:27;2.30;;;1.08;;
12476;SDS011;6303;51.504;6.300;2022-09-20T16:28:55;2.28;;;1.08;;
12476;SDS011;6303;51.504;6.300;2022-09-20T16:31:30;3.00;;;1.30;;
12476;SDS011;6303;51.504;6.300;2022-09-20T16:33:59;2.40;;;1.10;;
12476;SDS011;6303;51.504;6.300;2022-09-20T16:36:27;3.55;;;1.10;;
12476;SDS011;6303;51.504;6.300;2022-09-20T16:38:56;9.13;;;1.40;;